• Join FlightAware (Why Join?)
  • Login
  • US Flag 
08:33AM EDT


 

Airport Tracker/Info


-or-


 

Live Flight TrackerFlight Track Log ✈ CES5532 ✈ 09-Oct-2013 ✈ ZSCN / KHN - ZSPD / PVG

Flight Track Log - Related Links

Times and Time Zones

All times are in EDT time to prevent confusion due to time zone crossing. See the CES5532 flight status page for this flight to view local times or setup timezone preferences in your user account.

Time Position Orientation Groundspeed Altitude Reporting Facility
EDT Latitude Longitude Course Direction KTS MPH feet Rate Location/Type
07:41AM 29.7259 118.0174 64° Northeast  Level Estimated
07:42AM 29.7625 118.1103 66° East  Level Estimated
07:43AM 29.7991 118.2032 66° East  Level Estimated
07:44AM 29.8357 118.2962 66° East  Level Estimated
07:45AM 29.8721 118.3893 66° East  Level Estimated
07:46AM 29.9085 118.4825 66° East  Level Estimated
07:47AM 29.9449 118.5757 66° East  Level Estimated
07:48AM 29.9811 118.6690 66° East  Level Estimated
07:49AM 30.0173 118.7623 66° East  Level Estimated
07:50AM 30.0535 118.8557 66° East  Level Estimated
07:51AM 30.0896 118.9492 66° East  Level Estimated
07:52AM 30.1256 119.0428 66° East  Level Estimated
07:53AM 30.1615 119.1364 66° East  Level Estimated
07:54AM 30.1974 119.2301 66° East  Level Estimated
07:55AM 30.2332 119.3239 66° East  Level Estimated
07:56AM 30.2689 119.4177 66° East  Level Estimated
07:57AM 30.3046 119.5116 66° East  Level Estimated
07:58AM 30.3402 119.6055 66° East  Level Estimated
07:59AM 30.3758 119.6996 66° East  Level Estimated
08:00AM 30.4112 119.7937 66° East  Level Estimated
08:01AM 30.4467 119.8878 66° East  Level Estimated
08:02AM 30.4820 119.9821 66° East  Level Estimated
08:03AM 30.5173 120.0764 67° East  Level Estimated
08:04AM 30.5525 120.1708 67° East  Level Estimated
08:05AM 30.5876 120.2652 67° East  Level Estimated
08:06AM 30.6227 120.3597 67° East  Level Estimated
08:07AM 30.6577 120.4543 67° East  Level Estimated
08:08AM 30.6926 120.5489 67° East  Level Estimated
08:09AM 30.7275 120.6437 67° East  Level Estimated
08:10AM 30.7623 120.7384 67° East  Level Estimated
08:11AM 30.7970 120.8333 67° East  Level Estimated
08:12AM 30.8316 120.9282 67° East  Level Estimated
08:13AM 30.8662 121.0232 67° East  Level Estimated
08:13AM 30.7170 121.8400 67° East 5,600  Level FlightAware
08:13AM 30.7370 121.8470 17° North 226 260 5,200 -1,380 Descending FlightAware
08:13AM 30.7590 121.8530 13° North 326 375 4,800 -1,200 Descending FlightAware
08:14AM 30.7790 121.8590 14° North 223 257 4,500 -1,080 Descending FlightAware
08:14AM 30.8130 121.8690 14° North 271 312 3,900 -420 Descending FlightAware
08:15AM 30.8780 121.8850 12° North 3,800 -120 Descending FlightAware
08:16AM 30.9070 121.8760 345° North 309 356 3,800 -180 Level FlightAware
08:16AM 30.9270 121.8690 343° North 241 277 3,700 -540 Descending FlightAware
08:16AM 30.9420 121.8630 341° North 229 264 3,500 -1,080 Descending FlightAware
08:16AM 30.9650 121.8540 341° North 164 189 3,100 -1,200 Descending FlightAware
08:17AM 30.9850 121.8470 343° North 192 221 2,700 -1,200 Descending FlightAware
08:17AM 31.0070 121.8390 343° North 198 228 2,200 -960 Descending FlightAware
08:18AM 31.0220 121.8330 341° North 192 221 2,000 -780 Descending FlightAware
08:18AM 31.0380 121.8270 342° North 165 190 1,700 -900 Descending FlightAware
08:18AM 31.0510 121.8220 342° North 115 132 1,400 -780 Descending FlightAware
08:19AM 31.0630 121.8180 344° North 104 120 1,200 -720 Descending FlightAware
08:19AM 31.0950 121.8060 342° North 135 155 600 -720 Descending FlightAware
08:22AM 31.1428 121.7924 346° North  Level Estimated
08:23AM 31.1428 121.7924 221° Southwest  Level Estimated
08:24AM 31.1428 121.7924 221° Southwest  Level Estimated
08:25AM 31.1428 121.7924 221° Southwest  Level Estimated
08:26AM 31.1428 121.7924 221° Southwest  Level Estimated
08:27AM 31.1428 121.7924 221° Southwest  Level Estimated
08:28AM 31.1428 121.7924 221° Southwest  Level Estimated
08:29AM 31.1428 121.7924 221° Southwest  Level Estimated
08:30AM 31.1428 121.7924 221° Southwest  Level Estimated
08:31AM 31.1428 121.7924 221° Southwest  Level Estimated
08:32AM 31.1428 121.7924 221° Southwest  Level Estimated
08:33AM 31.1428 121.7924 221° Southwest  Level Estimated
08:34AM 31.1428 121.7924 221° Southwest  Level Estimated
08:35AM 31.1428 121.7924 221° Southwest  Level Estimated
08:36AM 31.1428 121.7924 221° Southwest  Level Estimated
08:37AM 31.1428 121.7924 221° Southwest  Level Estimated